»·PEaware :: N836ZJ KVNY-KSNA

N836ZJ :: KVNY-KSNA

FLIGHT INFORMATION

Flight Status: Arrived
Operator: Privately registered:
United States
More flights under this callsign
Pilot: Ying Z. (35511)
Aircraft: CIRRUS SR-22
(SR22)
More flights by this aircraft type
Origin: KVNY Van Nuys
United States
Destination: KSNA John Wayne-Orange Co
United States
More flights between these airports :: More routes between these airports
Route: ADAMM3 ADAMM V186 BAYJY V363 POXKU V8 SLI
File this flight plan on PilotEdge
Remarks: request ILS RUNWAY 20R
Altitude:
(Current/Filed)
5,000ft
Speed:
(Current/Filed)
180kts
Departed: 24-Jan-23 05:55 PM
Arrived: 24-Jan-23 06:33 PM
Distance/Time
Traveled:
45nm/0:38
Distance/Time
To Go:
Arrived

Flight Plot

Page will automatically refresh every two minutes.

Flight plan parsing failed; only flown route is shown


Map Options




Map Legend


Flown Route
Filed Route
Departure Airport
Arrival Airport
Navaid (VOR, NDB)
Fix

Horizontal Profiles

Position Reports

Time Latitude Longitude Heading Altitude Ground
Speed
24-Jan-23 17:20 34.194982 -118.487618 270 745ft 0kts
24-Jan-23 17:21 34.194982 -118.487618 270 745ft 0kts
24-Jan-23 17:21 34.194982 -118.487618 270 745ft 0kts
24-Jan-23 17:23 34.194982 -118.487618 270 745ft 0kts
24-Jan-23 17:24 34.194982 -118.487618 270 745ft 0kts
24-Jan-23 17:25 34.194982 -118.487618 270 745ft 0kts
24-Jan-23 17:26 34.194982 -118.487618 270 745ft 0kts
24-Jan-23 17:26 34.194982 -118.487618 270 745ft 0kts
24-Jan-23 17:27 34.194982 -118.487618 270 745ft 0kts
24-Jan-23 17:29 34.194982 -118.487618 270 745ft 0kts
24-Jan-23 17:30 34.194982 -118.487618 270 745ft 0kts
24-Jan-23 17:31 34.194982 -118.487618 270 745ft 0kts
24-Jan-23 17:31 34.194982 -118.487618 270 745ft 0kts
24-Jan-23 17:32 34.194982 -118.487618 270 745ft 0kts
24-Jan-23 17:33 34.194982 -118.487618 270 745ft 0kts
24-Jan-23 17:35 34.194982 -118.487618 270 745ft 0kts
24-Jan-23 17:36 34.194982 -118.487618 270 745ft 0kts
24-Jan-23 17:36 34.194982 -118.487618 270 745ft 0kts
24-Jan-23 17:37 34.194982 -118.487618 270 745ft 0kts
24-Jan-23 17:38 34.194982 -118.487618 270 745ft 0kts
24-Jan-23 17:39 34.194982 -118.487618 270 745ft 0kts
24-Jan-23 17:40 34.194982 -118.487618 270 745ft 0kts
24-Jan-23 17:41 34.194982 -118.487618 270 745ft 0kts
24-Jan-23 17:42 34.194982 -118.487618 270 745ft 0kts
24-Jan-23 17:43 34.194982 -118.487618 270 745ft 0kts
24-Jan-23 17:44 34.194982 -118.487618 270 745ft 0kts
24-Jan-23 17:45 34.194982 -118.487618 270 745ft 0kts
24-Jan-23 17:46 34.194982 -118.487618 270 745ft 0kts
24-Jan-23 17:47 34.194982 -118.487618 270 745ft 0kts
24-Jan-23 17:48 34.194982 -118.487618 270 745ft 0kts
24-Jan-23 17:49 34.194982 -118.487618 270 745ft 0kts
24-Jan-23 17:50 34.194982 -118.487618 270 745ft 0kts
24-Jan-23 17:51 34.194982 -118.487618 270 745ft 0kts
24-Jan-23 17:52 34.195762 -118.488107 344 747ft 11kts
24-Jan-23 17:53 34.203548 -118.488323 7 763ft 39kts
24-Jan-23 17:54 34.216230 -118.489123 351 792ft 51kts
24-Jan-23 17:55 34.218815 -118.489545 318 798ft 0kts
24-Jan-23 17:56 34.215503 -118.489228 8 791ft 0kts
24-Jan-23 17:57 34.218260 -118.489432 355 797ft 9kts
24-Jan-23 17:58 34.218751 -118.489929 189 798ft 19kts
24-Jan-23 17:59 34.195315 -118.485729 149 1697ft 110kts
24-Jan-23 18:00 34.176780 -118.453850 125 3187ft 120kts
24-Jan-23 18:01 34.158461 -118.419892 118 5000ft 133kts
24-Jan-23 18:02 34.161682 -118.351016 117 5126ft 259kts
24-Jan-23 18:03 34.113318 -118.304509 118 5062ft 210kts
24-Jan-23 18:04 34.105173 -118.239688 85 5051ft 195kts
24-Jan-23 18:05 34.104204 -118.175157 89 5057ft 190kts
24-Jan-23 18:06 34.104723 -118.111932 96 5059ft 189kts
24-Jan-23 18:07 34.089084 -118.050822 108 5058ft 191kts
24-Jan-23 18:08 34.070629 -117.990607 108 5057ft 192kts
24-Jan-23 18:09 34.051629 -117.928795 108 5068ft 211kts
24-Jan-23 18:10 34.029729 -117.857850 108 5062ft 235kts
24-Jan-23 18:11 34.004468 -117.784302 136 5043ft 243kts
24-Jan-23 18:12 33.939631 -117.779769 160 5001ft 245kts
24-Jan-23 18:13 33.877678 -117.754921 161 3575ft 214kts
24-Jan-23 18:14 33.827032 -117.750793 183 2992ft 147kts
24-Jan-23 18:15 33.816309 -117.789881 228 3032ft 167kts
24-Jan-23 18:16 33.814460 -117.838615 291 3083ft 164kts
24-Jan-23 18:17 33.840608 -117.866813 21 3000ft 129kts
24-Jan-23 18:18 33.872036 -117.850562 21 3019ft 130kts
24-Jan-23 18:19 33.907473 -117.832038 21 3013ft 142kts
24-Jan-23 18:20 33.944205 -117.812896 21 3011ft 143kts
24-Jan-23 18:21 33.964216 -117.780748 110 3015ft 143kts
24-Jan-23 18:22 33.945220 -117.740071 167 3005ft 142kts
24-Jan-23 18:23 33.905756 -117.739754 180 3017ft 141kts
24-Jan-23 18:24 33.868045 -117.747074 208 3010ft 138kts
24-Jan-23 18:25 33.835500 -117.767770 208 2999ft 121kts
24-Jan-23 18:26 33.806770 -117.785993 208 2792ft 121kts
24-Jan-23 18:27 33.777464 -117.804563 207 2165ft 106kts
24-Jan-23 18:28 33.751524 -117.820949 207 1652ft 130kts
24-Jan-23 18:29 33.722996 -117.838995 206 997ft 97kts
24-Jan-23 18:30 33.700781 -117.853023 207 490ft 81kts
24-Jan-23 18:31 33.681393 -117.865258 206 76ft 80kts
24-Jan-23 18:32 33.674658 -117.868554 176 50ft 0kts
24-Jan-23 18:33 33.673749 -117.866744 38 47ft 19kts
24-Jan-23 18:34 33.674015 -117.866553 38 47ft 0kts

Navigation Log

Ident Type
Flight plan parsing failed, navigation log unavailable